Time;durP1;ratioP1;P1;durP2;ratioP2;P2;SDS_P1;SDS_P2;PMS_P1;PMS_P2;Temp;Humidity;BMP_temperature;BMP_pressure;BME280_temperature;BME280_humidity;BME280_pressure;Samples;Min_cycle;Max_cycle;Signal;HPM_P1;HPM_P2
2022/08/29 00:00:22;;;;;;;5.47;2.65;;;;;;;22.72;69.13;99444.69;4330535;33;33356;-79
2022/08/29 00:02:54;;;;;;;5.40;2.72;;;;;;;22.74;69.17;99447.25;4328573;33;33473;-80
2022/08/29 00:05:25;;;;;;;5.35;2.87;;;;;;;22.69;69.50;99444.03;4340194;33;33387;-79
2022/08/29 00:07:54;;;;;;;5.40;2.75;;;;;;;22.89;68.99;99450.63;4339932;33;34340;-79
2022/08/29 00:10:23;;;;;;;4.28;2.28;;;;;;;22.62;69.83;99440.12;4333067;32;34177;-79
2022/08/29 00:12:51;;;;;;;5.65;2.53;;;;;;;22.90;68.89;99439.94;4328895;33;33809;-79
2022/08/29 00:15:22;;;;;;;5.60;2.58;;;;;;;22.77;69.36;99445.22;4324672;33;35139;-79
2022/08/29 00:17:51;;;;;;;5.35;2.60;;;;;;;22.62;69.88;99440.97;4311096;33;33856;-80
2022/08/29 00:20:22;;;;;;;5.35;2.70;;;;;;;22.56;70.11;99442.22;4313835;33;33812;-81
2022/08/29 00:23:01;;;;;;;6.10;2.87;;;;;;;22.59;70.15;99443.81;4318617;33;32877;-79
2022/08/29 00:25:30;;;;;;;6.12;3.20;;;;;;;22.68;69.81;99442.34;4321190;33;34826;-80
2022/08/29 00:27:59;;;;;;;4.82;2.55;;;;;;;22.58;70.25;99444.75;4310661;33;33560;-79
2022/08/29 00:30:31;;;;;;;4.75;2.50;;;;;;;22.56;70.23;99442.22;4320681;33;34311;-79
2022/08/29 00:32:59;;;;;;;6.03;2.95;;;;;;;22.59;70.11;99441.16;4331202;33;33112;-79
2022/08/29 00:35:31;;;;;;;4.05;2.40;;;;;;;22.64;70.12;99440.84;4340849;33;33503;-79
2022/08/29 00:38:00;;;;;;;5.80;2.95;;;;;;;22.50;70.61;99440.00;4329297;33;34834;-80
2022/08/29 00:40:31;;;;;;;8.20;3.12;;;;;;;22.47;70.64;99445.50;4342691;33;33736;-80
2022/08/29 00:43:01;;;;;;;5.75;2.47;;;;;;;22.28;71.46;99445.84;4327101;33;33183;-80
2022/08/29 00:45:32;;;;;;;4.32;2.37;;;;;;;22.43;70.87;99453.72;4323840;33;33894;-81
2022/08/29 00:48:04;;;;;;;5.40;2.92;;;;;;;22.12;72.25;99466.25;4321606;33;34802;-79
2022/08/29 00:50:36;;;;;;;4.50;2.35;;;;;;;22.15;72.34;99451.03;4318848;33;33628;-78
2022/08/29 00:53:08;;;;;;;4.60;2.53;;;;;;;22.30;71.63;99461.59;4327478;33;33540;-79
2022/08/29 00:55:39;;;;;;;5.07;2.87;;;;;;;22.23;71.93;99457.66;4344808;33;33594;-79
2022/08/29 00:58:10;;;;;;;5.37;2.62;;;;;;;22.15;72.00;99461.59;4342697;33;34019;-80
2022/08/29 01:00:46;;;;;;;4.90;2.50;;;;;;;22.07;72.45;99461.25;4329654;33;34261;-79
2022/08/29 01:03:15;;;;;;;7.55;2.85;;;;;;;22.35;71.25;99470.94;4321237;33;34103;-79
2022/08/29 01:05:45;;;;;;;4.75;2.60;;;;;;;22.30;71.67;99469.53;4310719;33;33762;-80
2022/08/29 01:08:13;;;;;;;5.75;2.70;;;;;;;22.26;71.71;99460.13;4327521;33;34188;-81
2022/08/29 01:13:33;;;;;;;5.97;2.97;;;;;;;22.24;71.52;99459.37;4329809;33;33360;-81
2022/08/29 01:16:05;;;;;;;5.45;2.47;;;;;;;22.10;72.18;99461.06;4332983;33;33583;-80
2022/08/29 01:18:37;;;;;;;5.87;3.25;;;;;;;21.81;73.54;99462.91;4324797;33;34856;-78
2022/08/29 01:21:13;;;;;;;3.85;2.30;;;;;;;21.97;73.11;99460.16;4330740;33;33752;-80
2022/08/29 01:23:46;;;;;;;5.37;2.62;;;;;;;22.14;72.04;99470.50;4324805;33;33225;-79
2022/08/29 01:26:16;;;;;;;5.80;2.55;;;;;;;22.09;72.21;99463.81;4324939;33;33884;-80
2022/08/29 01:28:48;;;;;;;5.28;3.00;;;;;;;22.01;72.59;99469.59;4324871;33;33973;-81
2022/08/29 01:31:20;;;;;;;6.22;2.33;;;;;;;21.93;72.99;99477.16;4325304;33;33903;-79
2022/08/29 01:34:10;;;;;;;4.65;2.50;;;;;;;22.22;71.57;99477.94;4336390;33;33511;-80
2022/08/29 01:36:42;;;;;;;6.25;2.70;;;;;;;21.86;73.09;99478.47;4333941;33;33564;-80
2022/08/29 01:39:11;;;;;;;5.65;2.58;;;;;;;22.02;72.41;99471.28;4324905;33;33800;-78
2022/08/29 01:41:42;;;;;;;5.75;2.95;;;;;;;22.03;72.18;99472.97;4324524;33;33272;-81
2022/08/29 01:44:11;;;;;;;;;;;;;;;22.09;72.09;99471.75;4325191;33;32591;-81
2022/08/29 01:46:40;;;;;;;5.85;2.83;;;;;;;21.69;73.94;99476.91;4330639;33;33953;-79
2022/08/29 01:49:10;;;;;;;5.85;2.62;;;;;;;21.72;73.43;99464.38;4311124;33;33481;-79
2022/08/29 01:51:40;;;;;;;5.30;2.67;;;;;;;21.99;72.44;99465.31;4330362;33;33061;-79
2022/08/29 01:54:11;;;;;;;5.95;2.62;;;;;;;21.90;72.55;99464.16;4337322;33;33386;-79
2022/08/29 01:56:43;;;;;;;5.18;2.83;;;;;;;21.67;73.65;99471.72;4344919;33;34193;-79
2022/08/29 01:59:15;;;;;;;5.55;2.80;;;;;;;21.63;74.03;99464.94;4328977;33;34267;-80
2022/08/29 02:01:47;;;;;;;4.70;2.70;;;;;;;21.89;72.80;99470.34;4324719;33;33563;-81
2022/08/29 02:04:16;;;;;;;4.60;2.22;;;;;;;21.69;73.61;99482.19;4330445;33;33968;-79
2022/08/29 02:06:45;;;;;;;4.97;2.47;;;;;;;21.79;72.97;99469.25;4338451;33;34292;-79
2022/08/29 02:09:16;;;;;;;5.62;2.87;;;;;;;21.69;73.13;99468.97;4344406;33;34022;-79
2022/08/29 02:11:47;;;;;;;6.47;2.75;;;;;;;21.79;72.89;99471.88;4338958;33;34630;-81
2022/08/29 02:14:15;;;;;;;3.67;2.00;;;;;;;21.60;73.30;99474.81;4337746;33;34136;-79
2022/08/29 02:16:47;;;;;;;5.53;2.50;;;;;;;21.26;74.98;99467.19;4318825;33;33506;-80
2022/08/29 02:19:17;;;;;;;4.43;2.60;;;;;;;21.59;73.31;99460.78;4329687;33;34766;-79
2022/08/29 02:21:47;;;;;;;5.90;3.28;;;;;;;21.59;72.84;99460.78;4329742;33;33823;-81
2022/08/29 02:24:16;;;;;;;5.18;2.10;;;;;;;21.57;73.16;99464.47;4324644;33;33273;-79
2022/08/29 02:26:56;;;;;;;5.57;2.47;;;;;;;21.59;72.92;99458.16;4324664;33;33382;-79
2022/08/29 02:29:25;;;;;;;;;;;;;;;21.56;72.87;99454.88;4324715;33;33969;-79
2022/08/29 02:32:06;;;;;;;5.28;2.72;;;;;;;21.56;72.58;99463.62;4324740;33;34492;-78
2022/08/29 02:34:35;;;;;;;5.43;2.62;;;;;;;21.40;72.98;99458.44;4326299;33;34526;-80
2022/08/29 02:37:06;;;;;;;4.90;2.62;;;;;;;21.26;73.51;99447.84;4339097;33;34378;-78
2022/08/29 02:39:34;;;;;;;5.20;2.93;;;;;;;21.27;73.50;99446.91;4334012;33;33068;-79
2022/08/29 02:42:05;;;;;;;5.37;2.92;;;;;;;21.26;73.38;99447.84;4310847;33;32335;-80
2022/08/29 02:44:34;;;;;;;;;;;;;;;21.06;74.20;99446.44;4335647;33;33543;-78
2022/08/29 02:47:03;;;;;;;5.70;2.67;;;;;;;21.07;74.23;99445.50;4339015;33;34052;-81
2022/08/29 02:49:32;;;;;;;6.10;2.85;;;;;;;21.10;73.71;99451.44;4329924;33;33621;-81
2022/08/29 02:52:05;;;;;;;5.82;2.53;;;;;;;20.87;75.27;99449.31;4324116;33;33033;-78
2022/08/29 02:54:34;;;;;;;5.18;2.85;;;;;;;21.06;74.17;99444.63;4329336;33;33128;-80
2022/08/29 02:57:05;;;;;;;6.72;3.45;;;;;;;21.18;73.50;99448.31;4325604;33;35573;-79
2022/08/29 02:59:34;;;;;;;5.55;3.28;;;;;;;20.90;74.85;99454.44;4324175;33;33736;-78
2022/08/29 03:02:04;;;;;;;6.55;3.60;;;;;;;20.93;74.59;99448.97;4323986;33;33589;-79
2022/08/29 03:04:34;;;;;;;5.00;2.90;;;;;;;20.82;75.03;99452.22;4329137;33;33332;-79
2022/08/29 03:07:04;;;;;;;5.70;2.83;;;;;;;21.04;74.00;99450.94;4331734;33;33686;-78
2022/08/29 03:09:33;;;;;;;6.10;3.45;;;;;;;21.01;74.04;99451.13;4323627;33;34775;-80
2022/08/29 03:12:01;;;;;;;6.53;3.45;;;;;;;20.99;74.00;99458.28;4323182;33;34705;-81
2022/08/29 03:14:32;;;;;;;5.53;3.15;;;;;;;20.95;74.33;99451.47;4328812;33;34177;-81
2022/08/29 03:17:00;;;;;;;5.65;3.00;;;;;;;20.86;74.87;99461.66;4343800;33;33595;-79
2022/08/29 03:19:29;;;;;;;5.97;3.08;;;;;;;21.11;73.28;99460.19;4328709;33;33834;-81
2022/08/29 03:21:59;;;;;;;4.50;2.90;;;;;;;21.09;73.54;99462.94;4326975;33;33731;-81
2022/08/29 03:24:28;;;;;;;6.55;3.40;;;;;;;20.88;73.95;99464.22;4321099;33;34088;-80
2022/08/29 03:26:56;;;;;;;5.62;3.05;;;;;;;21.03;73.66;99465.91;4340725;33;33796;-79
2022/08/29 03:29:26;;;;;;;5.50;2.80;;;;;;;20.87;74.60;99476.53;4346048;33;34813;-81
2022/08/29 03:31:57;;;;;;;5.90;3.05;;;;;;;20.96;74.06;99480.41;4340363;33;34415;-79
2022/08/29 03:34:26;;;;;;;5.78;3.33;;;;;;;20.94;74.12;99484.09;4336900;33;34304;-79
2022/08/29 03:36:55;;;;;;;6.60;3.33;;;;;;;21.06;73.10;99491.25;4340530;32;34727;-80
2022/08/29 03:39:24;;;;;;;5.78;3.03;;;;;;;21.02;73.23;99495.00;4344152;33;34119;-81
2022/08/29 03:41:53;;;;;;;6.90;3.25;;;;;;;21.07;73.45;99492.97;4326074;33;33790;-78
2022/08/29 03:44:23;;;;;;;6.50;3.53;;;;;;;20.98;73.43;99493.53;4328548;33;33238;-81
2022/08/29 03:46:52;;;;;;;5.28;3.17;;;;;;;20.92;74.08;99491.22;4340765;33;33846;-79
2022/08/29 03:49:23;;;;;;;5.30;3.15;;;;;;;21.20;72.60;99499.19;4333225;33;34282;-81
2022/08/29 03:51:52;;;;;;;4.57;2.83;;;;;;;21.29;72.39;99503.94;4330762;33;33459;-81
2022/08/29 03:54:21;;;;;;;6.75;3.87;;;;;;;21.30;72.16;99508.25;4327199;33;32966;-79
2022/08/29 03:56:50;;;;;;;6.78;3.58;;;;;;;21.68;70.35;99514.81;4319222;33;33750;-80
2022/08/29 03:59:19;;;;;;;6.82;3.08;;;;;;;21.34;71.75;99516.84;4320094;33;33839;-79
2022/08/29 04:01:49;;;;;;;6.82;3.42;;;;;;;21.68;70.23;99526.22;4326852;33;34290;-81
2022/08/29 04:07:05;;;;;;;7.50;3.92;;;;;;;21.80;69.57;99529.91;4339832;33;32872;-81
2022/08/29 04:09:34;;;;;;;5.45;3.12;;;;;;;21.93;68.90;99535.25;4340387;33;33759;-81
2022/08/29 04:12:03;;;;;;;5.18;2.87;;;;;;;21.71;69.94;99533.09;4320351;33;35230;-81
2022/08/29 04:14:32;;;;;;;6.32;3.25;;;;;;;21.70;69.93;99524.34;4333783;33;33991;-80
2022/08/29 04:17:03;;;;;;;6.60;3.37;;;;;;;21.87;69.20;99530.38;4340214;33;33529;-80
2022/08/29 04:19:32;;;;;;;6.68;3.53;;;;;;;21.73;69.61;99521.50;4328664;33;33871;-79
2022/08/29 04:22:01;;;;;;;5.50;3.37;;;;;;;21.87;68.80;99533.84;4325690;33;33729;-78
2022/08/29 04:24:31;;;;;;;5.57;3.40;;;;;;;21.77;69.24;99524.81;4330426;33;33587;-79
2022/08/29 04:27:00;;;;;;;5.70;3.30;;;;;;;21.81;69.15;99533.38;4323903;33;33945;-81
2022/08/29 04:29:29;;;;;;;5.70;2.97;;;;;;;21.52;70.48;99530.72;4320876;33;33592;-78
2022/08/29 04:31:57;;;;;;;6.62;3.40;;;;;;;21.67;69.62;99532.47;4324543;33;33597;-81
2022/08/29 04:34:26;;;;;;;6.80;2.85;;;;;;;21.51;70.46;99537.81;4313841;33;32936;-81
2022/08/29 04:36:55;;;;;;;6.35;3.35;;;;;;;21.59;70.41;99541.78;4345598;33;34026;-81
2022/08/29 04:39:25;;;;;;;5.68;3.08;;;;;;;21.94;68.79;99542.25;4339927;33;33665;-79
2022/08/29 04:41:56;;;;;;;8.10;3.28;;;;;;;21.76;69.75;99552.16;4339965;33;34603;-80
2022/08/29 04:44:24;;;;;;;6.78;3.03;;;;;;;22.01;68.78;99545.34;4337799;33;33292;-81
2022/08/29 04:46:53;;;;;;;8.40;3.42;;;;;;;21.89;69.16;99541.66;4330508;33;33575;-80
2022/08/29 04:49:22;;;;;;;5.70;2.95;;;;;;;21.97;68.88;99542.06;4324986;33;34115;-80
2022/08/29 04:51:52;;;;;;;5.90;3.15;;;;;;;21.91;68.98;99551.19;4324477;33;34365;-79
2022/08/29 04:54:21;;;;;;;5.45;2.97;;;;;;;21.88;69.29;99548.75;4325518;33;33555;-80
2022/08/29 04:56:50;;;;;;;5.93;2.85;;;;;;;21.95;69.49;99551.84;4328288;33;34629;-81
2022/08/29 04:59:26;;;;;;;5.75;3.08;;;;;;;22.34;67.34;99545.88;4331040;33;33741;-79
2022/08/29 05:01:56;;;;;;;6.80;3.30;;;;;;;22.00;68.28;99554.22;4327659;33;33284;-79
2022/08/29 05:04:25;;;;;;;7.53;3.80;;;;;;;21.87;68.79;99551.50;4331176;33;33056;-79
2022/08/29 05:06:53;;;;;;;8.18;3.80;;;;;;;22.03;68.57;99557.50;4325085;33;34605;-80
2022/08/29 05:09:22;;;;;;;5.93;3.20;;;;;;;22.07;68.32;99553.72;4344780;33;33832;-81
2022/08/29 05:11:51;;;;;;;7.00;3.55;;;;;;;21.85;69.14;99553.38;4339947;33;33464;-81
2022/08/29 05:14:20;;;;;;;6.22;2.87;;;;;;;21.93;69.00;99551.09;4331102;33;33995;-78
2022/08/29 05:16:50;;;;;;;6.37;3.45;;;;;;;21.84;69.40;99552.53;4339264;33;34671;-80
2022/08/29 05:19:19;;;;;;;5.07;2.80;;;;;;;21.70;70.14;99556.03;4345656;33;34954;-80
2022/08/29 05:21:48;;;;;;;6.95;3.40;;;;;;;22.00;69.06;99562.12;4339839;33;33659;-79
2022/08/29 05:24:18;;;;;;;4.60;2.62;;;;;;;22.23;68.14;99547.50;4325108;33;32585;-80
2022/08/29 05:26:46;;;;;;;6.22;3.12;;;;;;;21.96;69.21;99561.47;4324696;33;34400;-81
2022/08/29 05:29:15;;;;;;;6.57;3.10;;;;;;;22.14;68.52;99562.97;4325014;33;34084;-79
2022/08/29 05:31:45;;;;;;;5.47;3.22;;;;;;;21.94;69.81;99563.38;4330208;33;33547;-79
2022/08/29 05:34:16;;;;;;;8.30;3.50;;;;;;;22.09;69.09;99564.22;4325357;33;33259;-80
2022/08/29 05:37:04;;;;;;;7.70;3.30;;;;;;;22.51;66.90;99560.63;4310596;33;34439;-79
2022/08/29 05:39:34;;;;;;;6.55;2.83;;;;;;;22.54;67.41;99562.22;4318055;33;34073;-79
2022/08/29 05:42:04;;;;;;;7.70;3.62;;;;;;;23.31;63.82;99563.31;4324353;33;34175;-79
2022/08/29 05:44:33;;;;;;;5.95;3.17;;;;;;;23.23;64.28;99568.28;4331661;33;34009;-79
2022/08/29 05:47:04;;;;;;;8.48;2.75;;;;;;;22.99;64.80;99565.50;4327122;33;33526;-79
2022/08/29 05:49:35;;;;;;;6.05;3.45;;;;;;;22.92;65.65;99572.94;4313010;33;33726;-79
2022/08/29 05:52:05;;;;;;;5.80;2.70;;;;;;;23.00;65.07;99569.81;4316041;33;33598;-78
2022/08/29 05:54:36;;;;;;;6.53;3.60;;;;;;;23.06;65.04;99568.59;4340386;33;34143;-78
2022/08/29 05:57:06;;;;;;;7.87;3.12;;;;;;;22.68;66.16;99572.75;4313367;33;34318;-79
2022/08/29 05:59:35;;;;;;;4.22;2.35;;;;;;;22.58;67.05;99577.81;4319698;33;34473;-81
2022/08/29 06:02:04;;;;;;;7.10;3.47;;;;;;;22.73;66.43;99575.09;4323773;33;33464;-80
2022/08/29 06:04:35;;;;;;;5.60;2.67;;;;;;;22.48;67.21;99573.22;4323955;33;33067;-79
2022/08/29 06:07:04;;;;;;;4.95;3.00;;;;;;;22.63;66.66;99576.66;4325045;33;33675;-81
2022/08/29 06:09:34;;;;;;;6.72;3.15;;;;;;;22.36;67.55;99580.97;4321519;33;33904;-79
2022/08/29 06:12:03;;;;;;;6.57;3.45;;;;;;;22.59;67.04;99576.00;4317139;33;33344;-80
2022/08/29 06:14:32;;;;;;;4.53;2.78;;;;;;;22.64;66.46;99583.63;4320648;33;34852;-81
2022/08/29 06:17:01;;;;;;;4.82;2.62;;;;;;;22.42;67.39;99587.66;4327365;33;34230;-80
2022/08/29 06:19:33;;;;;;;6.05;2.65;;;;;;;22.53;66.71;99581.69;4322565;33;34436;-80
2022/08/29 06:22:04;;;;;;;5.43;2.53;;;;;;;22.78;66.41;99591.53;4322469;33;32622;-79
2022/08/29 06:24:39;;;;;;;5.30;2.85;;;;;;;22.69;67.08;99602.69;4324382;33;34146;-81
2022/08/29 06:27:12;;;;;;;5.20;2.80;;;;;;;23.07;65.47;99596.72;4320537;33;33515;-82
2022/08/29 06:29:41;;;;;;;5.97;3.05;;;;;;;23.05;65.50;99606.56;4326810;33;33781;-79
2022/08/29 06:32:11;;;;;;;5.15;2.95;;;;;;;23.05;65.76;99598.63;4311807;33;33375;-80
2022/08/29 06:34:40;;;;;;;4.78;2.42;;;;;;;23.33;64.71;99605.56;4315593;33;33107;-81
2022/08/29 06:37:11;;;;;;;6.05;3.30;;;;;;;23.19;65.24;99607.34;4320857;33;34697;-79
2022/08/29 06:39:40;;;;;;;5.18;2.90;;;;;;;23.10;65.58;99604.44;4325397;33;33147;-81
2022/08/29 06:42:09;;;;;;;4.53;2.50;;;;;;;23.54;63.83;99611.22;4311804;33;33637;-79
2022/08/29 06:44:39;;;;;;;5.20;2.30;;;;;;;23.43;63.86;99615.44;4316155;33;33385;-79
2022/08/29 06:47:12;;;;;;;4.00;2.20;;;;;;;23.24;64.36;99617.63;4317516;33;33726;-80
2022/08/29 06:49:40;;;;;;;4.90;2.70;;;;;;;22.95;65.83;99609.81;4323912;33;33619;-80
2022/08/29 06:52:12;;;;;;;4.05;2.22;;;;;;;23.23;64.83;99608.00;4329800;33;33851;-79
2022/08/29 06:54:41;;;;;;;5.60;2.50;;;;;;;22.95;65.34;99620.37;4325866;33;32977;-79
2022/08/29 06:57:11;;;;;;;4.32;2.65;;;;;;;22.84;66.58;99628.16;4325812;33;33642;-80
2022/08/29 06:59:40;;;;;;;5.15;2.20;;;;;;;23.10;65.91;99622.97;4325893;33;34220;-79
2022/08/29 07:02:09;;;;;;;5.57;2.33;;;;;;;23.04;65.90;99623.41;4336251;33;33890;-79
2022/08/29 07:04:38;;;;;;;6.57;2.67;;;;;;;23.19;64.92;99619.72;4321143;33;32902;-79
2022/08/29 07:07:07;;;;;;;2.78;1.42;;;;;;;23.67;63.37;99622.66;4322007;33;34565;-79
2022/08/29 07:09:39;;;;;;;5.45;2.35;;;;;;;23.60;63.84;99626.69;4325627;33;33468;-78
2022/08/29 07:12:08;;;;;;;4.22;2.20;;;;;;;23.72;63.46;99625.84;4325572;33;33895;-79
2022/08/29 07:14:37;;;;;;;4.12;2.25;;;;;;;23.84;62.54;99634.78;4333635;33;34159;-79
2022/08/29 07:17:06;;;;;;;4.57;2.35;;;;;;;23.78;62.91;99627.25;4325670;33;34180;-81
2022/08/29 07:19:35;;;;;;;5.65;2.55;;;;;;;23.89;63.15;99631.81;4318152;33;34330;-79
2022/08/29 07:22:06;;;;;;;5.57;3.12;;;;;;;24.12;62.04;99627.56;4323167;33;34386;-81
2022/08/29 07:24:37;;;;;;;5.07;2.60;;;;;;;24.20;61.77;99623.41;4333035;33;32755;-81
2022/08/29 07:27:06;;;;;;;4.70;2.23;;;;;;;23.96;61.74;99628.63;4318821;33;32824;-79
2022/08/29 07:29:34;;;;;;;6.37;2.22;;;;;;;23.86;63.00;99635.53;4317255;33;34716;-81
2022/08/29 07:32:04;;;;;;;3.62;2.12;;;;;;;24.15;61.58;99630.84;4319935;33;34086;-80
2022/08/29 07:34:33;;;;;;;3.92;1.92;;;;;;;24.02;62.51;99632.66;4320986;33;33441;-80
2022/08/29 07:37:01;;;;;;;5.80;1.90;;;;;;;23.99;62.12;99641.69;4346166;33;33993;-81
2022/08/29 07:39:33;;;;;;;3.30;1.70;;;;;;;24.21;61.93;99633.06;4325161;33;33669;-80
2022/08/29 07:42:04;;;;;;;3.20;1.67;;;;;;;24.36;61.30;99640.88;4324532;33;33701;-80
2022/08/29 07:44:33;;;;;;;3.28;1.80;;;;;;;24.20;61.84;99636.66;4324437;33;32563;-82
2022/08/29 07:47:02;;;;;;;4.37;2.40;;;;;;;24.35;61.41;99629.41;4316575;33;34328;-81
2022/08/29 07:49:32;;;;;;;4.57;2.22;;;;;;;24.52;61.00;99633.53;4315778;33;33756;-82
2022/08/29 07:52:08;;;;;;;2.42;1.48;;;;;;;24.57;60.40;99639.34;4317105;33;34304;-81
2022/08/29 07:54:37;;;;;;;3.45;1.98;;;;;;;24.56;60.19;99640.31;4319294;33;33166;-81
2022/08/29 07:57:07;;;;;;;3.72;1.80;;;;;;;24.72;60.14;99636.53;4318369;33;34145;-79
2022/08/29 07:59:36;;;;;;;3.58;1.98;;;;;;;24.78;59.77;99631.66;4330769;33;34363;-80
2022/08/29 08:02:05;;;;;;;4.85;1.92;;;;;;;24.78;59.33;99628.16;4329971;33;33565;-80
2022/08/29 08:04:34;;;;;;;3.33;1.77;;;;;;;24.72;59.11;99629.47;4325636;33;33184;-79
2022/08/29 08:07:03;;;;;;;2.75;1.52;;;;;;;24.53;59.78;99637.91;4325647;33;33410;-79
2022/08/29 08:09:41;;;;;;;2.22;1.35;;;;;;;24.70;59.83;99650.78;4329197;33;34354;-80
2022/08/29 08:12:11;;;;;;;2.55;1.58;;;;;;;24.81;59.44;99654.44;4329481;32;33812;-79
2022/08/29 08:14:40;;;;;;;3.75;1.70;;;;;;;24.85;59.48;99650.63;4317246;33;32753;-80
2022/08/29 08:17:08;;;;;;;3.45;1.80;;;;;;;25.01;58.31;99663.59;4327005;33;33543;-81
2022/08/29 08:19:38;;;;;;;6.75;1.85;;;;;;;24.85;59.15;99656.78;4325709;33;34868;-80
2022/08/29 08:22:06;;;;;;;4.87;2.10;;;;;;;25.17;57.93;99652.72;4331392;33;34410;-82
2022/08/29 08:24:35;;;;;;;3.70;1.98;;;;;;;25.09;58.83;99655.94;4320325;33;33520;-80
2022/08/29 08:27:04;;;;;;;3.03;1.50;;;;;;;25.44;57.98;99657.78;4318879;33;33977;-81
2022/08/29 08:29:35;;;;;;;3.42;1.83;;;;;;;25.65;56.98;99656.16;4323558;33;33512;-82
2022/08/29 08:32:04;;;;;;;3.20;1.50;;;;;;;25.39;56.53;99644.00;4323014;33;32866;-80
2022/08/29 08:34:32;;;;;;;5.15;1.77;;;;;;;25.61;56.74;99649.38;4315559;33;33002;-80
2022/08/29 08:37:06;;;;;;;5.57;1.80;;;;;;;25.90;55.62;99656.94;4318305;33;32612;-80
2022/08/29 08:39:36;;;;;;;3.10;1.58;;;;;;;25.68;56.68;99652.41;4322051;33;34805;-80
2022/08/29 08:42:12;;;;;;;3.35;1.62;;;;;;;25.62;56.29;99650.25;4322649;33;33357;-80
2022/08/29 08:45:05;;;;;;;3.50;1.67;;;;;;;25.76;56.20;99650.87;4328543;33;33447;-81
2022/08/29 08:47:39;;;;;;;2.30;1.50;;;;;;;25.50;56.63;99650.22;4324435;33;35486;-81
2022/08/29 08:50:12;;;;;;;4.75;1.67;;;;;;;25.70;56.95;99655.81;4314820;33;34696;-82
2022/08/29 08:52:45;;;;;;;3.80;1.67;;;;;;;25.79;56.30;99656.91;4310727;33;33419;-79
2022/08/29 08:55:24;;;;;;;3.70;1.83;;;;;;;25.76;56.52;99656.19;4327611;33;33073;-80
2022/08/29 08:58:00;;;;;;;2.50;1.52;;;;;;;26.08;55.33;99652.88;4330636;33;34142;-80
2022/08/29 09:00:37;;;;;;;2.78;1.48;;;;;;;26.17;54.69;99652.16;4330780;33;33870;-80
2022/08/29 09:03:16;;;;;;;4.28;1.77;;;;;;;26.21;55.06;99652.75;4324874;33;33909;-79
2022/08/29 09:05:57;;;;;;;3.80;1.80;;;;;;;26.17;53.83;99651.31;4318668;33;33163;-79
2022/08/29 09:08:28;;;;;;;;;;;;;;;26.09;54.80;99654.53;4323005;33;33490;-80
2022/08/29 09:11:00;;;;;;;4.47;2.17;;;;;;;25.98;54.68;99648.41;4321225;33;33424;-81
2022/08/29 09:13:37;;;;;;;4.35;2.28;;;;;;;26.07;54.43;99652.97;4326351;33;33523;-81
2022/08/29 09:16:15;;;;;;;4.20;2.12;;;;;;;26.24;54.08;99644.53;4319969;33;33071;-81
2022/08/29 09:18:46;;;;;;;3.67;2.03;;;;;;;26.29;54.39;99647.69;4320683;33;33529;-80
2022/08/29 09:21:25;;;;;;;3.67;1.73;;;;;;;26.33;54.47;99645.59;4321178;33;33591;-79
2022/08/29 09:24:14;;;;;;;3.15;1.50;;;;;;;26.35;53.64;99643.69;4306384;33;33653;-79
2022/08/29 09:26:43;;;;;;;3.67;2.08;;;;;;;26.21;53.87;99641.25;4329482;33;34136;-80
2022/08/29 09:29:12;;;;;;;4.28;1.80;;;;;;;26.14;53.85;99639.09;4323575;33;33651;-79
2022/08/29 09:31:43;;;;;;;3.53;1.70;;;;;;;26.20;54.14;99642.25;4323800;33;34022;-81
2022/08/29 09:34:14;;;;;;;5.50;2.10;;;;;;;26.47;53.59;99647.19;4324100;33;34485;-80
2022/08/29 09:36:44;;;;;;;4.12;1.85;;;;;;;26.56;53.38;99643.81;4324247;33;32976;-82
2022/08/29 09:39:20;;;;;;;3.47;1.85;;;;;;;26.46;52.86;99637.47;4328801;33;33729;-81
2022/08/29 09:41:51;;;;;;;3.53;1.60;;;;;;;26.58;52.24;99648.03;4324064;33;34356;-79
2022/08/29 09:44:24;;;;;;;3.03;1.90;;;;;;;26.42;52.78;99647.53;4322048;33;33671;-80
2022/08/29 09:47:13;;;;;;;3.42;1.62;;;;;;;26.40;53.84;99638.84;4324041;33;33373;-81
2022/08/29 09:50:02;;;;;;;4.20;2.00;;;;;;;26.39;53.22;99653.13;4324006;33;33560;-82
2022/08/29 09:52:31;;;;;;;3.75;2.10;;;;;;;26.66;53.15;99655.41;4329099;33;33692;-80
2022/08/29 09:55:17;;;;;;;3.83;1.77;;;;;;;26.60;52.88;99650.56;4323843;33;34341;-79
2022/08/29 09:57:50;;;;;;;3.35;1.55;;;;;;;26.47;52.85;99644.50;4323195;33;33250;-79
2022/08/29 10:00:25;;;;;;;3.75;1.85;;;;;;;26.62;53.29;99642.47;4323359;33;34543;-81
2022/08/29 10:02:58;;;;;;;3.80;1.80;;;;;;;26.59;53.70;99643.56;4323641;33;34036;-79
2022/08/29 10:05:34;;;;;;;3.87;1.75;;;;;;;26.71;53.02;99650.53;4329435;33;33368;-80
2022/08/29 10:08:05;;;;;;;4.05;2.12;;;;;;;26.86;50.83;99659.09;4327798;33;33910;-78
2022/08/29 10:10:35;;;;;;;4.57;1.70;;;;;;;26.31;53.02;99655.53;4324850;33;32907;-80
2022/08/29 10:13:08;;;;;;;5.37;2.30;;;;;;;26.51;52.63;99646.81;4324812;33;33753;-79
2022/08/29 10:15:43;;;;;;;3.55;1.85;;;;;;;26.68;52.85;99653.47;4325071;33;35872;-80
2022/08/29 10:18:32;;;;;;;2.97;1.52;;;;;;;26.93;51.84;99640.81;4328194;33;33299;-81
2022/08/29 10:21:16;;;;;;;3.62;2.08;;;;;;;27.07;51.26;99653.00;4330036;33;34101;-81
2022/08/29 10:23:55;;;;;;;4.20;2.28;;;;;;;27.20;51.00;99654.53;4323634;33;34065;-79
2022/08/29 10:26:32;;;;;;;3.78;1.92;;;;;;;27.26;51.25;99657.69;4323480;33;33852;-79
2022/08/29 10:29:08;;;;;;;2.83;1.60;;;;;;;27.73;49.57;99653.66;4323085;33;33142;-81
2022/08/29 10:31:40;;;;;;;3.05;1.52;;;;;;;27.79;48.69;99658.47;4325336;33;33569;-79
2022/08/29 10:34:21;;;;;;;2.83;1.67;;;;;;;28.02;49.10;99656.50;4330681;33;33609;-80
2022/08/29 10:36:54;;;;;;;3.58;1.52;;;;;;;27.98;47.61;99655.09;4324167;33;33947;-80
2022/08/29 10:39:33;;;;;;;2.30;1.52;;;;;;;28.07;47.57;99653.44;4323262;33;33267;-80
2022/08/29 10:42:06;;;;;;;3.75;1.67;;;;;;;27.81;48.27;99648.53;4321654;33;34291;-81
2022/08/29 10:44:43;;;;;;;3.00;1.50;;;;;;;27.90;47.76;99652.22;4322163;33;33583;-79
2022/08/29 10:47:28;;;;;;;2.75;1.40;;;;;;;27.97;48.08;99657.87;4330364;33;34127;-79
2022/08/29 10:50:06;;;;;;;4.97;1.73;;;;;;;27.94;47.39;99650.16;4328519;33;33508;-79
2022/08/29 10:52:52;;;;;;;3.60;1.42;;;;;;;28.00;46.98;99642.47;4323595;33;33490;-79
2022/08/29 10:55:31;;;;;;;2.67;1.27;;;;;;;28.43;46.68;99636.03;4326417;33;34398;-80
2022/08/29 10:58:03;;;;;;;2.78;1.48;;;;;;;28.52;46.05;99637.06;4323353;33;34160;-79
2022/08/29 11:00:39;;;;;;;3.58;1.73;;;;;;;28.25;46.71;99633.19;4324995;33;33411;-79
2022/08/29 11:03:13;;;;;;;3.10;1.50;;;;;;;28.06;47.62;99635.75;4330113;33;33643;-81
2022/08/29 11:05:46;;;;;;;2.22;1.35;;;;;;;28.25;46.78;99630.50;4320895;33;34641;-80
2022/08/29 11:08:21;;;;;;;2.90;1.35;;;;;;;28.33;45.74;99629.81;4323902;33;34033;-81
2022/08/29 11:10:52;;;;;;;6.00;1.45;;;;;;;28.04;47.39;99635.06;4325025;33;33243;-81
2022/08/29 11:13:24;;;;;;;3.75;1.87;;;;;;;28.15;47.32;99624.28;4325391;33;33151;-79
2022/08/29 11:16:00;;;;;;;2.75;1.33;;;;;;;28.40;46.43;99632.81;4329861;33;34563;-79
2022/08/29 11:18:34;;;;;;;3.20;1.48;;;;;;;28.38;45.59;99626.75;4325123;33;32866;-79
2022/08/29 11:21:27;;;;;;;2.70;1.35;;;;;;;28.24;45.70;99628.81;4323322;33;33013;-80
2022/08/29 11:24:01;;;;;;;2.15;1.23;;;;;;;28.40;45.63;99622.13;4325066;33;32949;-79
2022/08/29 11:26:41;;;;;;;2.47;0.90;;;;;;;28.23;47.03;99616.47;4325816;33;33812;-78
2022/08/29 11:29:16;;;;;;;3.00;1.20;;;;;;;28.59;45.28;99622.22;4328192;33;34579;-79
2022/08/29 11:48:46;;;;;;;2.50;1.30;;;;;;;29.37;41.58;99610.75;4514370;31;80358;-80
2022/08/29 11:51:32;;;;;;;2.83;1.33;;;;;;;29.37;41.58;99610.75;4511742;31;33853;-79
2022/08/29 11:54:52;;;;;;;1.73;1.15;;;;;;;28.60;44.28;99618.53;4495634;31;34245;-78
2022/08/29 11:57:47;;;;;;;2.72;1.33;;;;;;;28.63;43.63;99620.97;4442400;32;34284;-80
2022/08/29 12:00:50;;;;;;;3.87;1.30;;;;;;;28.62;43.74;99618.41;4440744;32;33681;-80
2022/08/29 12:03:54;;;;;;;2.22;1.05;;;;;;;28.77;43.26;99610.84;4439680;32;33097;-79
2022/08/29 12:06:52;;;;;;;1.60;0.98;;;;;;;28.77;43.50;99603.69;4440067;32;33693;-79
2022/08/29 12:09:31;;;;;;;2.25;0.90;;;;;;;28.90;44.20;99606.94;4422176;32;34802;-79
2022/08/29 12:12:34;;;;;;;2.35;1.08;;;;;;;29.06;43.56;99603.72;4409564;32;32898;-78
2022/08/29 12:15:44;;;;;;;2.33;1.05;;;;;;;29.24;43.15;99611.87;4415200;32;34063;-79
2022/08/29 12:18:44;;;;;;;1.87;1.05;;;;;;;28.97;43.25;99609.91;4420478;32;34265;-80
2022/08/29 12:21:44;;;;;;;3.65;1.27;;;;;;;28.94;43.50;99600.31;4416212;32;34350;-79